createdAt,value
2022-12-12T00:00:58.659Z,10.90
2022-12-12T00:03:30.898Z,11.30
2022-12-12T00:05:58.962Z,12.03
2022-12-12T00:08:26.959Z,9.00
2022-12-12T00:10:54.933Z,9.93
2022-12-12T00:13:22.852Z,11.00
2022-12-12T00:15:50.835Z,12.00
2022-12-12T00:18:20.151Z,11.93
2022-12-12T00:20:52.373Z,11.97
2022-12-12T00:23:20.289Z,12.27
2022-12-12T00:25:56.158Z,11.27
2022-12-12T00:28:24.799Z,12.00
2022-12-12T00:30:52.865Z,11.90
2022-12-12T00:33:22.528Z,11.77
2022-12-12T00:35:51.987Z,10.70
2022-12-12T00:38:20.688Z,11.27
2022-12-12T00:40:48.998Z,11.60
2022-12-12T00:43:17.492Z,11.70
2022-12-12T00:45:45.625Z,12.40
2022-12-12T00:48:13.554Z,13.27
2022-12-12T00:50:43.402Z,11.87
2022-12-12T00:53:11.793Z,11.37
2022-12-12T00:55:40.075Z,12.77
2022-12-12T00:58:07.973Z,11.73
2022-12-12T01:00:36.446Z,12.27
2022-12-12T01:03:04.516Z,12.60
2022-12-12T01:05:32.478Z,11.80
2022-12-12T01:08:01.810Z,12.33
2022-12-12T01:10:29.926Z,12.20
2022-12-12T01:12:57.869Z,10.67
2022-12-12T01:15:26.329Z,12.77
2022-12-12T01:17:54.613Z,11.93
2022-12-12T01:20:25.421Z,12.00
2022-12-12T01:22:53.428Z,12.87
2022-12-12T01:25:23.162Z,11.87
2022-12-12T01:27:51.177Z,12.00
2022-12-12T01:30:22.302Z,10.93
2022-12-12T01:32:50.445Z,12.07
2022-12-12T01:35:19.639Z,11.27
2022-12-12T01:37:48.276Z,13.20
2022-12-12T01:40:22.391Z,10.97
2022-12-12T01:42:52.342Z,11.63
2022-12-12T01:45:57.992Z,11.30
2022-12-12T01:48:29.393Z,10.30
2022-12-12T01:50:58.147Z,11.77
2022-12-12T01:53:29.532Z,12.10
2022-12-12T01:55:58.420Z,11.57
2022-12-12T01:58:28.260Z,12.03
2022-12-12T02:00:56.307Z,13.10
2022-12-12T02:03:24.293Z,12.17
2022-12-12T02:05:54.262Z,12.07
2022-12-12T02:08:24.357Z,12.40
2022-12-12T02:10:52.756Z,13.07
2022-12-12T02:13:23.829Z,13.60
2022-12-12T02:16:01.134Z,12.20
2022-12-12T02:18:35.786Z,13.53
2022-12-12T02:21:16.556Z,12.40
2022-12-12T02:24:27.757Z,13.20
2022-12-12T02:27:34.218Z,13.87
2022-12-12T02:30:20.334Z,13.30
2022-12-12T02:33:08.873Z,12.07
2022-12-12T02:35:47.361Z,11.43
2022-12-12T02:38:23.106Z,10.20
2022-12-12T02:41:05.009Z,11.83
2022-12-12T02:43:40.178Z,10.73
2022-12-12T02:46:14.396Z,11.77
2022-12-12T02:48:50.337Z,9.97
2022-12-12T02:51:19.494Z,11.90
2022-12-12T02:53:47.525Z,10.03
2022-12-12T02:56:52.338Z,10.80
2022-12-12T02:59:25.530Z,10.90
2022-12-12T03:02:20.968Z,11.43
2022-12-12T03:05:22.858Z,10.90
2022-12-12T03:08:02.553Z,10.77
2022-12-12T03:10:42.077Z,10.80
2022-12-12T03:13:15.189Z,9.90
2022-12-12T03:15:53.416Z,10.10
2022-12-12T03:18:26.380Z,9.07
2022-12-12T03:21:02.711Z,9.47
2022-12-12T03:23:38.292Z,8.40
2022-12-12T03:26:11.934Z,11.00
2022-12-12T03:28:44.529Z,8.50
2022-12-12T03:31:14.067Z,8.20
2022-12-12T03:33:47.583Z,8.37
2022-12-12T03:36:22.158Z,8.67
2022-12-12T03:38:57.048Z,8.63
2022-12-12T03:41:30.154Z,9.63
2022-12-12T03:44:03.881Z,9.20
2022-12-12T03:46:38.068Z,8.20
2022-12-12T03:49:11.576Z,8.47
2022-12-12T03:51:44.942Z,8.67
2022-12-12T03:54:21.466Z,9.00
2022-12-12T03:56:56.358Z,8.47
2022-12-12T03:59:30.102Z,9.67
2022-12-12T04:02:03.042Z,8.83
2022-12-12T04:04:37.234Z,9.23
2022-12-12T04:07:13.661Z,9.43
2022-12-12T04:09:59.796Z,10.90
2022-12-12T04:12:53.632Z,10.97
2022-12-12T04:15:53.768Z,10.53
2022-12-12T04:18:29.844Z,10.50
2022-12-12T04:21:25.613Z,9.43
2022-12-12T04:24:03.893Z,10.73
2022-12-12T04:26:43.007Z,9.47
2022-12-12T04:29:20.933Z,9.17
2022-12-12T04:31:52.774Z,8.50
2022-12-12T04:34:26.926Z,9.43
2022-12-12T04:36:55.598Z,10.43
2022-12-12T04:39:26.532Z,10.10
2022-12-12T04:41:55.930Z,9.30
2022-12-12T04:44:25.758Z,10.07
2022-12-12T04:46:56.046Z,10.60
2022-12-12T04:49:28.362Z,10.70
2022-12-12T04:52:00.348Z,10.60
2022-12-12T04:54:35.397Z,10.53
2022-12-12T04:57:07.020Z,11.00
2022-12-12T04:59:35.222Z,10.93
2022-12-12T05:02:09.981Z,11.93
2022-12-12T05:04:45.698Z,9.53
2022-12-12T05:07:18.202Z,13.10
2022-12-12T05:09:48.554Z,10.50
2022-12-12T05:12:16.774Z,10.70
2022-12-12T05:14:44.837Z,11.20
2022-12-12T05:17:17.998Z,9.73
2022-12-12T05:19:46.057Z,10.20
2022-12-12T05:22:13.980Z,9.27
2022-12-12T05:24:41.984Z,10.50
2022-12-12T05:27:12.410Z,10.80
2022-12-12T05:29:40.328Z,10.13
2022-12-12T05:32:08.342Z,10.83
2022-12-12T05:34:36.315Z,9.60
2022-12-12T05:37:04.266Z,10.93
2022-12-12T05:39:32.274Z,10.67
2022-12-12T05:42:00.166Z,10.70
2022-12-12T05:44:29.646Z,9.80
2022-12-12T05:46:57.583Z,10.33
2022-12-12T05:49:25.742Z,8.97
2022-12-12T05:51:53.697Z,10.40
2022-12-12T05:54:21.644Z,10.20
2022-12-12T05:56:49.539Z,9.93
2022-12-12T05:59:17.417Z,9.83
2022-12-12T06:01:46.728Z,10.10
2022-12-12T06:04:14.681Z,9.23
2022-12-12T06:06:42.650Z,10.17
2022-12-12T06:09:10.542Z,10.37
2022-12-12T06:11:38.453Z,10.60
2022-12-12T06:14:06.442Z,10.10
2022-12-12T06:16:35.665Z,10.20
2022-12-12T06:19:05.662Z,9.70
2022-12-12T06:21:33.633Z,11.00
2022-12-12T06:24:01.615Z,10.20
2022-12-12T06:26:30.206Z,10.80
2022-12-12T06:28:58.134Z,10.40
2022-12-12T06:31:26.101Z,10.43
2022-12-12T06:33:54.041Z,10.00
2022-12-12T06:36:24.941Z,9.57
2022-12-12T06:38:54.283Z,10.37
2022-12-12T06:41:23.179Z,9.47
2022-12-12T06:43:51.422Z,8.77
2022-12-12T06:46:23.146Z,9.50
2022-12-12T06:48:52.433Z,9.63
2022-12-12T06:51:23.294Z,9.80
2022-12-12T06:53:53.048Z,9.37
2022-12-12T06:56:23.318Z,9.40
2022-12-12T06:58:51.995Z,10.70
2022-12-12T07:01:22.482Z,8.93
2022-12-12T07:03:51.679Z,10.17
2022-12-12T07:06:21.611Z,10.90
2022-12-12T07:08:50.029Z,9.67
2022-12-12T07:11:21.313Z,9.07
2022-12-12T07:13:49.996Z,10.67
2022-12-12T07:16:18.837Z,9.03
2022-12-12T07:18:47.095Z,9.00
2022-12-12T07:21:17.354Z,9.73
2022-12-12T07:23:45.797Z,10.67
2022-12-12T07:26:16.146Z,10.20
2022-12-12T07:28:45.785Z,8.63
2022-12-12T07:31:16.258Z,9.27
2022-12-12T07:33:44.968Z,8.90
2022-12-12T07:36:14.234Z,10.13
2022-12-12T07:38:42.457Z,9.20
2022-12-12T07:41:12.445Z,9.77
2022-12-12T07:43:44.288Z,9.70
2022-12-12T07:46:16.394Z,9.37
2022-12-12T07:48:44.615Z,8.47
2022-12-12T07:51:12.902Z,9.40
2022-12-12T07:53:40.829Z,8.57
2022-12-12T07:56:10.268Z,9.33
2022-12-12T07:58:38.447Z,11.00
2022-12-12T08:01:19.537Z,10.17
2022-12-12T08:03:49.349Z,9.20
2022-12-12T08:06:18.482Z,8.50
2022-12-12T08:08:47.766Z,8.73
2022-12-12T08:11:17.408Z,8.07
2022-12-12T08:13:45.853Z,7.97
2022-12-12T08:16:17.939Z,8.67
2022-12-12T08:18:45.968Z,8.17
2022-12-12T08:21:18.831Z,8.73
2022-12-12T08:23:52.650Z,8.80
2022-12-12T08:26:20.725Z,8.50
2022-12-12T08:28:49.231Z,8.80
2022-12-12T08:31:19.450Z,7.93
2022-12-12T08:33:50.445Z,9.63
2022-12-12T08:36:19.841Z,9.20
2022-12-12T08:38:48.119Z,9.10
2022-12-12T08:41:16.165Z,8.17
2022-12-12T08:43:44.996Z,9.60
2022-12-12T08:46:17.712Z,7.93
2022-12-12T08:48:48.805Z,9.63
2022-12-12T08:51:17.529Z,8.40
2022-12-12T08:53:46.276Z,8.63
2022-12-12T08:56:14.493Z,8.87
2022-12-12T08:58:42.561Z,9.20
2022-12-12T09:01:13.830Z,8.90
2022-12-12T09:03:42.097Z,8.13
2022-12-12T09:06:12.204Z,9.43
2022-12-12T09:08:40.483Z,7.80
2022-12-12T09:11:08.989Z,7.43
2022-12-12T09:13:37.868Z,7.70
2022-12-12T09:16:06.625Z,7.10
2022-12-12T09:18:34.665Z,8.70
2022-12-12T09:21:02.895Z,8.00
2022-12-12T09:23:32.857Z,8.40
2022-12-12T09:26:06.104Z,7.63
2022-12-12T09:28:34.630Z,8.23
2022-12-12T09:31:05.620Z,8.10
2022-12-12T09:33:33.971Z,8.67
2022-12-12T09:36:03.679Z,9.23
2022-12-12T09:38:33.802Z,7.73
2022-12-12T09:41:05.115Z,7.23
2022-12-12T09:43:42.855Z,7.70
2022-12-12T09:46:21.717Z,8.17
2022-12-12T09:48:49.727Z,7.40
2022-12-12T09:51:18.095Z,7.77
2022-12-12T09:53:48.370Z,8.23
2022-12-12T09:56:22.553Z,7.67
2022-12-12T09:58:57.126Z,8.30
2022-12-12T10:01:30.914Z,7.13
2022-12-12T10:04:11.465Z,6.47
2022-12-12T10:06:46.465Z,7.70
2022-12-12T10:09:37.803Z,7.40
2022-12-12T10:12:08.735Z,7.20
2022-12-12T10:14:41.831Z,6.73
2022-12-12T10:17:14.943Z,7.43
2022-12-12T10:19:50.679Z,7.13
2022-12-12T10:22:27.054Z,7.50
2022-12-12T10:25:00.649Z,7.03
2022-12-12T10:27:28.564Z,6.60
2022-12-12T10:29:59.971Z,6.60
2022-12-12T10:32:39.178Z,7.63
2022-12-12T10:35:24.489Z,7.13
2022-12-12T10:38:15.103Z,6.60
2022-12-12T10:40:59.246Z,7.03
2022-12-12T10:43:35.261Z,6.50
2022-12-12T10:46:17.634Z,6.77
2022-12-12T10:48:48.749Z,6.00
2022-12-12T10:51:19.690Z,6.33
2022-12-12T10:53:47.941Z,6.50
2022-12-12T10:56:23.080Z,6.90
2022-12-12T10:58:55.068Z,7.17
2022-12-12T11:01:52.466Z,7.27
2022-12-12T11:04:15.895Z,6.60
2022-12-12T11:06:49.035Z,6.57
2022-12-12T11:09:20.717Z,7.00
2022-12-12T11:12:00.591Z,7.47
2022-12-12T11:14:33.444Z,7.37
2022-12-12T11:17:02.031Z,6.17
2022-12-12T11:19:37.956Z,6.63
2022-12-12T11:22:06.155Z,6.00
2022-12-12T11:24:35.899Z,7.40
2022-12-12T11:27:08.153Z,6.93
2022-12-12T11:29:43.759Z,7.03
2022-12-12T11:32:15.037Z,6.03
2022-12-12T11:34:48.413Z,6.63
2022-12-12T11:37:18.300Z,6.17
2022-12-12T11:39:50.569Z,6.60
2022-12-12T11:42:23.267Z,6.80
2022-12-12T11:45:00.451Z,6.97
2022-12-12T11:47:30.411Z,6.67
2022-12-12T11:49:59.777Z,8.57
2022-12-12T11:52:31.391Z,6.60
2022-12-12T11:55:00.777Z,7.03
2022-12-12T11:57:53.010Z,5.20
2022-12-12T12:00:23.374Z,6.70
2022-12-12T12:03:16.026Z,6.30
2022-12-12T12:05:54.625Z,6.90
2022-12-12T12:08:40.057Z,7.67
2022-12-12T12:11:19.799Z,6.70
2022-12-12T12:14:13.672Z,6.90
2022-12-12T12:16:51.110Z,7.17
2022-12-12T12:19:25.630Z,6.30
2022-12-12T12:22:04.812Z,8.03
2022-12-12T12:24:57.186Z,6.63
2022-12-12T12:27:35.069Z,7.10
2022-12-12T12:30:18.334Z,5.60
2022-12-12T12:33:06.881Z,5.70
2022-12-12T12:35:45.559Z,6.70
2022-12-12T12:38:26.226Z,6.93
2022-12-12T12:41:12.442Z,6.53
2022-12-12T12:43:57.092Z,6.03
2022-12-12T12:46:37.861Z,6.33
2022-12-12T12:49:13.822Z,5.73
2022-12-12T12:51:50.327Z,5.37
2022-12-12T12:54:23.404Z,6.13
2022-12-12T12:56:56.681Z,5.80
2022-12-12T12:59:30.885Z,5.60
2022-12-12T13:02:03.965Z,5.80
2022-12-12T13:04:37.830Z,5.40
2022-12-12T13:07:13.013Z,5.60
2022-12-12T13:09:45.341Z,5.40
2022-12-12T13:12:19.058Z,5.13
2022-12-12T13:14:52.226Z,5.97
2022-12-12T13:17:26.258Z,5.70
2022-12-12T13:19:57.020Z,5.20
2022-12-12T13:22:34.422Z,5.10
2022-12-12T13:25:11.022Z,11.80
2022-12-12T13:27:45.761Z,6.00
2022-12-12T13:30:23.328Z,6.30
2022-12-12T13:33:07.096Z,6.50
2022-12-12T13:35:40.087Z,7.10
2022-12-12T13:38:18.858Z,6.30
2022-12-12T13:40:55.464Z,6.60
2022-12-12T13:43:31.834Z,6.90
2022-12-12T13:46:00.015Z,6.43
2022-12-12T13:48:46.855Z,5.90
2022-12-12T13:51:39.813Z,5.10
2022-12-12T13:54:53.392Z,6.90
2022-12-12T13:57:30.782Z,5.40
2022-12-12T14:00:20.777Z,5.43
2022-12-12T14:03:01.675Z,5.37
2022-12-12T14:05:36.730Z,4.97
2022-12-12T14:08:21.178Z,5.43
2022-12-12T14:10:58.512Z,6.50
2022-12-12T14:13:32.146Z,5.07
2022-12-12T14:16:06.913Z,5.33
2022-12-12T14:18:38.982Z,5.70
2022-12-12T14:21:11.635Z,5.27
2022-12-12T14:23:42.388Z,5.80
2022-12-12T14:26:48.153Z,5.60
2022-12-12T14:29:27.221Z,4.97
2022-12-12T14:32:04.877Z,5.03
2022-12-12T14:34:46.134Z,5.93
2022-12-12T14:37:39.145Z,5.47
2022-12-12T14:40:21.358Z,5.43
2022-12-12T14:43:19.173Z,5.80
2022-12-12T14:45:53.213Z,5.57
2022-12-12T14:48:23.971Z,5.87
2022-12-12T14:51:09.114Z,6.17
2022-12-12T14:53:47.842Z,7.10
2022-12-12T14:56:18.381Z,8.87
2022-12-12T14:58:50.518Z,6.13
2022-12-12T15:01:30.131Z,5.90
2022-12-12T15:03:59.526Z,7.20
2022-12-12T15:06:36.341Z,6.17
2022-12-12T15:09:29.231Z,6.23
2022-12-12T15:12:06.201Z,7.30
2022-12-12T15:14:34.100Z,6.70
2022-12-12T15:17:06.162Z,6.80
2022-12-12T15:19:43.098Z,5.83
2022-12-12T15:22:13.314Z,6.20
2022-12-12T15:24:42.591Z,6.07
2022-12-12T15:27:19.982Z,6.10
2022-12-12T15:29:48.003Z,7.10
2022-12-12T15:32:19.782Z,8.20
2022-12-12T15:34:49.422Z,6.80
2022-12-12T15:37:26.371Z,7.60
2022-12-12T15:40:17.495Z,7.40
2022-12-12T15:42:48.552Z,6.07
2022-12-12T15:45:21.582Z,6.43
2022-12-12T15:47:51.628Z,7.80
2022-12-12T15:50:22.333Z,7.40
2022-12-12T15:53:08.265Z,6.67
2022-12-12T15:55:37.663Z,6.70
2022-12-12T15:58:05.825Z,6.00
2022-12-12T16:00:37.652Z,7.40
2022-12-12T16:03:20.686Z,7.20
2022-12-12T16:06:04.038Z,7.83
2022-12-12T16:08:38.584Z,6.90
2022-12-12T16:11:39.348Z,7.13
2022-12-12T16:14:35.355Z,6.37
2022-12-12T16:17:08.234Z,6.33
2022-12-12T16:19:46.417Z,7.00
2022-12-12T16:22:19.131Z,6.00
2022-12-12T16:24:50.016Z,7.73
2022-12-12T16:27:19.542Z,6.13
2022-12-12T16:29:48.083Z,7.17
2022-12-12T16:32:17.678Z,7.50
2022-12-12T16:34:46.035Z,7.13
2022-12-12T16:37:15.900Z,7.10
2022-12-12T16:39:44.090Z,7.23
2022-12-12T16:42:14.771Z,7.13
2022-12-12T16:44:44.661Z,7.27
2022-12-12T16:47:17.407Z,6.53
2022-12-12T16:49:45.777Z,7.77
2022-12-12T16:52:14.160Z,7.53
2022-12-12T16:54:45.797Z,7.37
2022-12-12T16:57:17.476Z,7.63
2022-12-12T16:59:46.936Z,7.73
2022-12-12T17:02:20.635Z,7.40
2022-12-12T17:04:48.962Z,8.43
2022-12-12T17:07:17.215Z,7.40
2022-12-12T17:09:45.159Z,7.00
2022-12-12T17:12:13.411Z,7.63
2022-12-12T17:14:41.429Z,7.03
2022-12-12T17:17:10.723Z,8.37
2022-12-12T17:19:38.662Z,8.93
2022-12-12T17:22:06.678Z,6.73
2022-12-12T17:24:34.574Z,8.43
2022-12-12T17:27:02.482Z,7.93
2022-12-12T17:29:30.425Z,7.70
2022-12-12T17:31:58.439Z,7.13
2022-12-12T17:34:27.765Z,7.63
2022-12-12T17:36:55.658Z,6.20
2022-12-12T17:39:23.818Z,7.90
2022-12-12T17:41:51.738Z,6.30
2022-12-12T17:44:19.625Z,7.43
2022-12-12T17:46:47.678Z,8.30
2022-12-12T17:49:15.569Z,7.70
2022-12-12T17:51:44.855Z,7.93
2022-12-12T17:54:13.113Z,8.17
2022-12-12T17:56:41.772Z,7.00
2022-12-12T17:59:10.282Z,7.60
2022-12-12T18:01:38.442Z,7.77
2022-12-12T18:04:06.580Z,6.90
2022-12-12T18:06:36.357Z,7.17
2022-12-12T18:09:05.850Z,7.73
2022-12-12T18:11:35.649Z,7.97
2022-12-12T18:14:07.610Z,7.70
2022-12-12T18:16:37.241Z,7.27
2022-12-12T18:19:05.740Z,7.30
2022-12-12T18:24:25.602Z,6.97
2022-12-12T18:26:54.127Z,8.30
2022-12-12T18:29:23.173Z,6.97
2022-12-12T18:31:51.599Z,8.10
2022-12-12T18:34:19.639Z,7.43
2022-12-12T18:36:47.680Z,7.47
2022-12-12T18:39:18.750Z,8.13
2022-12-12T18:41:49.019Z,8.40
2022-12-12T18:44:17.055Z,7.87
2022-12-12T18:46:45.310Z,8.40
2022-12-12T18:49:15.737Z,7.53
2022-12-12T18:51:44.547Z,7.43
2022-12-12T18:54:15.233Z,7.17
2022-12-12T18:56:44.398Z,7.13
2022-12-12T18:59:14.398Z,8.07
2022-12-12T19:01:42.909Z,7.50
2022-12-12T19:04:14.352Z,7.77
2022-12-12T19:06:45.728Z,7.27
2022-12-12T19:09:16.642Z,8.10
2022-12-12T19:11:45.379Z,7.73
2022-12-12T19:14:16.124Z,6.90
2022-12-12T19:16:44.268Z,7.57
2022-12-12T19:19:13.272Z,7.80
2022-12-12T19:21:42.922Z,7.27
2022-12-12T19:24:12.327Z,7.03
2022-12-12T19:26:42.001Z,6.53
2022-12-12T19:29:13.174Z,5.97
2022-12-12T19:31:42.482Z,7.50
2022-12-12T19:34:13.470Z,6.10
2022-12-12T19:36:45.225Z,7.07
2022-12-12T19:39:13.597Z,6.83
2022-12-12T19:41:42.335Z,7.03
2022-12-12T19:44:12.891Z,7.70
2022-12-12T19:46:45.465Z,6.67
2022-12-12T19:49:15.663Z,6.33
2022-12-12T19:51:45.205Z,7.07
2022-12-12T19:54:16.703Z,6.73
2022-12-12T19:56:44.958Z,6.53
2022-12-12T19:59:14.900Z,6.70
2022-12-12T20:01:44.599Z,6.40
2022-12-12T20:04:16.333Z,7.13
2022-12-12T20:06:46.102Z,8.40
2022-12-12T20:09:15.258Z,8.63
2022-12-12T20:11:45.217Z,7.20
2022-12-12T20:14:14.874Z,6.47
2022-12-12T20:16:44.783Z,7.00
2022-12-12T20:19:13.459Z,6.80
2022-12-12T20:24:32.551Z,6.83
2022-12-12T20:27:02.911Z,6.87
2022-12-12T20:29:31.028Z,7.60
2022-12-12T20:32:01.299Z,7.30
2022-12-12T20:34:29.872Z,7.00
2022-12-12T20:36:58.580Z,6.13
2022-12-12T20:39:26.617Z,6.50
2022-12-12T20:41:56.545Z,7.80
2022-12-12T20:44:25.594Z,7.50
2022-12-12T20:46:54.018Z,7.93
2022-12-12T20:49:24.708Z,7.20
2022-12-12T20:51:56.306Z,7.43
2022-12-12T20:54:25.706Z,7.97
2022-12-12T20:56:54.439Z,7.77
2022-12-12T20:59:23.506Z,6.60
2022-12-12T21:01:51.769Z,7.40
2022-12-12T21:04:19.873Z,6.70
2022-12-12T21:06:51.345Z,7.40
2022-12-12T21:09:25.598Z,7.03
2022-12-12T21:11:55.761Z,7.10
2022-12-12T21:14:24.255Z,6.77
2022-12-12T21:16:52.456Z,6.93
2022-12-12T21:19:21.947Z,8.13
2022-12-12T21:21:51.613Z,6.90
2022-12-12T21:24:20.706Z,7.40
2022-12-12T21:26:48.987Z,7.70
2022-12-12T21:29:17.123Z,7.17
2022-12-12T21:31:50.947Z,7.10
2022-12-12T21:34:20.097Z,7.73
2022-12-12T21:36:52.594Z,7.73
2022-12-12T21:39:21.874Z,7.07
2022-12-12T21:41:51.207Z,7.30
2022-12-12T21:44:19.391Z,7.27
2022-12-12T21:46:47.374Z,8.60
2022-12-12T21:49:26.526Z,7.87
2022-12-12T21:51:57.646Z,7.17
2022-12-12T21:54:26.572Z,7.60
2022-12-12T21:56:54.493Z,8.07
2022-12-12T21:59:22.755Z,7.53
2022-12-12T22:01:52.105Z,7.80
2022-12-12T22:04:20.021Z,6.80
2022-12-12T22:06:48.176Z,6.17
2022-12-12T22:09:17.686Z,8.00
2022-12-12T22:11:50.524Z,7.50
2022-12-12T22:14:21.421Z,7.80
2022-12-12T22:16:49.694Z,7.67
2022-12-12T22:19:18.480Z,7.77
2022-12-12T22:21:48.152Z,8.10
2022-12-12T22:24:18.230Z,8.70
2022-12-12T22:26:47.911Z,7.27
2022-12-12T22:29:17.374Z,6.80
2022-12-12T22:31:46.005Z,7.47
2022-12-12T22:34:16.398Z,6.90
2022-12-12T22:36:45.736Z,7.43
2022-12-12T22:39:15.869Z,6.80
2022-12-12T22:41:45.291Z,7.20
2022-12-12T22:44:16.639Z,7.80
2022-12-12T22:46:45.603Z,7.07
2022-12-12T22:49:14.764Z,6.90
2022-12-12T22:51:43.845Z,7.37
2022-12-12T22:54:12.409Z,7.63
2022-12-12T22:56:41.296Z,7.57
2022-12-12T22:59:13.179Z,6.60
2022-12-12T23:01:41.865Z,7.20
2022-12-12T23:04:12.058Z,7.50
2022-12-12T23:06:40.100Z,7.77
2022-12-12T23:09:14.325Z,6.73
2022-12-12T23:11:42.433Z,6.70
2022-12-12T23:14:15.234Z,7.27
2022-12-12T23:16:44.079Z,6.90
2022-12-12T23:19:14.469Z,7.03
2022-12-12T23:21:42.967Z,7.00
2022-12-12T23:24:10.892Z,7.90
2022-12-12T23:26:38.993Z,7.63
2022-12-12T23:29:09.253Z,7.20
2022-12-12T23:31:39.809Z,7.47
2022-12-12T23:34:15.355Z,7.30
2022-12-12T23:36:43.821Z,7.23
2022-12-12T23:39:12.432Z,7.73
2022-12-12T23:41:40.673Z,8.10
2022-12-12T23:44:09.586Z,7.50
2022-12-12T23:46:38.834Z,7.53
2022-12-12T23:49:08.615Z,7.50
2022-12-12T23:51:38.626Z,8.17
2022-12-12T23:54:08.887Z,7.30
2022-12-12T23:56:36.841Z,8.50
2022-12-12T23:59:05.179Z,7.73
